createdAt,value
2023-03-24T00:01:24.708Z,3.23
2023-03-24T00:03:53.571Z,3.47
2023-03-24T00:06:23.103Z,3.30
2023-03-24T00:08:51.468Z,3.17
2023-03-24T00:11:21.562Z,3.17
2023-03-24T00:13:50.732Z,3.13
2023-03-24T00:16:22.100Z,3.47
2023-03-24T00:18:54.287Z,3.10
2023-03-24T00:21:24.796Z,3.77
2023-03-24T00:23:55.816Z,3.03
2023-03-24T00:26:25.943Z,2.80
2023-03-24T00:28:55.180Z,2.80
2023-03-24T00:31:24.577Z,3.00
2023-03-24T00:33:54.031Z,3.10
2023-03-24T00:36:24.555Z,3.00
2023-03-24T00:38:53.780Z,2.90
2023-03-24T00:41:22.502Z,3.30
2023-03-24T00:43:53.034Z,3.50
2023-03-24T00:46:29.193Z,2.67
2023-03-24T00:49:02.798Z,3.00
2023-03-24T00:51:35.724Z,3.33
2023-03-24T00:54:04.151Z,3.40
2023-03-24T00:56:34.313Z,3.00
2023-03-24T00:59:04.487Z,2.60
2023-03-24T01:01:36.558Z,2.97
2023-03-24T01:04:06.668Z,3.00
2023-03-24T01:06:38.248Z,2.93
2023-03-24T01:09:07.788Z,3.80
2023-03-24T01:11:40.288Z,3.03
2023-03-24T01:14:11.193Z,4.67
2023-03-24T01:16:39.903Z,4.43
2023-03-24T01:19:09.314Z,3.47
2023-03-24T01:21:38.235Z,3.30
2023-03-24T01:24:07.795Z,2.93
2023-03-24T01:26:36.426Z,2.70
2023-03-24T01:29:06.536Z,3.43
2023-03-24T01:31:36.977Z,3.73
2023-03-24T01:34:05.930Z,3.33
2023-03-24T01:36:34.203Z,3.43
2023-03-24T01:39:03.194Z,3.10
2023-03-24T01:41:35.999Z,3.43
2023-03-24T01:44:28.459Z,3.53
2023-03-24T01:46:59.293Z,3.20
2023-03-24T01:49:34.512Z,3.20
2023-03-24T01:52:06.230Z,3.20
2023-03-24T01:54:38.452Z,2.83
2023-03-24T01:57:12.471Z,4.10
2023-03-24T01:59:45.793Z,4.17
2023-03-24T02:02:18.350Z,3.13
2023-03-24T02:04:54.082Z,2.60
2023-03-24T02:07:32.957Z,3.60
2023-03-24T02:10:01.990Z,3.10
2023-03-24T02:12:31.287Z,2.93
2023-03-24T02:15:00.204Z,3.30
2023-03-24T02:17:45.014Z,4.03
2023-03-24T02:21:00.512Z,3.33
2023-03-24T02:23:55.786Z,3.80
2023-03-24T02:26:45.468Z,3.60
2023-03-24T02:29:45.685Z,3.20
2023-03-24T02:32:40.221Z,3.90
2023-03-24T02:35:32.069Z,3.17
2023-03-24T02:38:29.452Z,3.20
2023-03-24T02:41:02.361Z,3.90
2023-03-24T02:43:43.587Z,3.23
2023-03-24T02:46:20.050Z,3.43
2023-03-24T02:49:03.796Z,2.97
2023-03-24T02:51:40.177Z,3.43
2023-03-24T02:54:13.769Z,4.07
2023-03-24T02:56:48.345Z,4.13
2023-03-24T02:59:21.795Z,3.30
2023-03-24T03:01:57.811Z,4.70
2023-03-24T03:04:33.066Z,3.60
2023-03-24T03:07:09.692Z,3.53
2023-03-24T03:09:41.231Z,4.17
2023-03-24T03:12:13.929Z,4.57
2023-03-24T03:14:47.077Z,3.10
2023-03-24T03:17:19.526Z,3.77
2023-03-24T03:19:52.751Z,3.70
2023-03-24T03:22:26.896Z,3.43
2023-03-24T03:24:57.514Z,4.50
2023-03-24T03:27:31.738Z,3.37
2023-03-24T03:30:06.140Z,4.43
2023-03-24T03:32:40.434Z,4.60
2023-03-24T03:35:20.996Z,3.30
2023-03-24T03:37:57.370Z,3.37
2023-03-24T03:40:29.058Z,3.80
2023-03-24T03:43:00.786Z,3.87
2023-03-24T03:45:28.972Z,3.33
2023-03-24T03:47:57.343Z,3.73
2023-03-24T03:50:25.525Z,3.73
2023-03-24T03:52:54.147Z,3.80
2023-03-24T03:55:22.848Z,5.93
2023-03-24T03:57:51.904Z,4.97
2023-03-24T04:00:23.583Z,3.87
2023-03-24T04:03:09.152Z,3.90
2023-03-24T04:05:39.301Z,4.30
2023-03-24T04:08:18.262Z,4.03
2023-03-24T04:11:10.847Z,4.07
2023-03-24T04:13:47.246Z,3.77
2023-03-24T04:16:24.046Z,4.13
2023-03-24T04:19:03.898Z,3.70
2023-03-24T04:21:56.101Z,3.73
2023-03-24T04:24:34.938Z,4.80
2023-03-24T04:27:09.560Z,4.47
2023-03-24T04:29:46.938Z,3.50
2023-03-24T04:32:22.751Z,3.60
2023-03-24T04:35:01.554Z,3.27
2023-03-24T04:37:33.603Z,3.53
2023-03-24T04:40:08.521Z,3.37
2023-03-24T04:42:41.516Z,4.10
2023-03-24T04:45:11.053Z,3.63
2023-03-24T04:47:45.396Z,4.07
2023-03-24T04:50:15.384Z,4.27
2023-03-24T04:52:44.579Z,3.90
2023-03-24T04:55:33.518Z,4.57
2023-03-24T04:58:01.783Z,4.10
2023-03-24T05:00:31.368Z,4.00
2023-03-24T05:03:01.766Z,3.53
2023-03-24T05:05:29.937Z,4.03
2023-03-24T05:07:58.647Z,4.33
2023-03-24T05:10:26.776Z,4.53
2023-03-24T05:12:54.812Z,3.13
2023-03-24T05:15:23.027Z,3.63
2023-03-24T05:17:52.910Z,4.20
2023-03-24T05:20:23.035Z,3.63
2023-03-24T05:22:52.135Z,3.93
2023-03-24T05:25:21.320Z,4.40
2023-03-24T05:27:49.760Z,3.30
2023-03-24T05:30:20.316Z,4.73
2023-03-24T05:32:51.853Z,3.60
2023-03-24T05:35:20.476Z,3.93
2023-03-24T05:37:50.192Z,3.80
2023-03-24T05:40:18.355Z,4.17
2023-03-24T05:42:49.855Z,3.70
2023-03-24T05:45:19.284Z,4.10
2023-03-24T05:47:52.215Z,3.60
2023-03-24T05:50:20.797Z,4.00
2023-03-24T05:52:50.946Z,4.30
2023-03-24T05:55:19.515Z,3.30
2023-03-24T05:57:47.753Z,3.53
2023-03-24T06:00:18.092Z,4.07
2023-03-24T06:02:47.266Z,3.87
2023-03-24T06:05:15.638Z,3.70
2023-03-24T06:07:43.744Z,3.73
2023-03-24T06:10:18.577Z,4.20
2023-03-24T06:12:46.939Z,4.27
2023-03-24T06:15:17.453Z,3.70
2023-03-24T06:17:46.847Z,4.43
2023-03-24T06:20:18.504Z,3.83
2023-03-24T06:22:50.740Z,4.13
2023-03-24T06:25:24.087Z,3.77
2023-03-24T06:27:52.203Z,3.97
2023-03-24T06:30:20.992Z,4.20
2023-03-24T06:32:49.101Z,3.83
2023-03-24T06:35:20.462Z,3.77
2023-03-24T06:37:48.890Z,3.87
2023-03-24T06:40:17.888Z,3.77
2023-03-24T06:42:47.536Z,4.53
2023-03-24T06:45:15.659Z,3.53
2023-03-24T06:47:48.317Z,4.23
2023-03-24T06:50:16.463Z,3.80
2023-03-24T06:52:44.604Z,3.63
2023-03-24T06:55:13.191Z,3.80
2023-03-24T06:57:41.620Z,4.37
2023-03-24T07:00:13.686Z,3.67
2023-03-24T07:02:42.929Z,3.60
2023-03-24T07:05:12.520Z,4.10
2023-03-24T07:10:14.168Z,4.00
2023-03-24T07:12:42.344Z,3.80
2023-03-24T07:15:24.872Z,4.00
2023-03-24T07:17:53.113Z,3.77
2023-03-24T07:20:24.724Z,3.63
2023-03-24T07:22:56.434Z,3.70
2023-03-24T07:25:26.582Z,3.47
2023-03-24T07:27:56.028Z,3.67
2023-03-24T07:30:39.943Z,4.23
2023-03-24T07:33:12.469Z,3.93
2023-03-24T07:35:41.199Z,4.60
2023-03-24T07:38:10.248Z,4.03
2023-03-24T07:40:38.412Z,3.87
2023-03-24T07:43:07.100Z,4.07
2023-03-24T07:45:37.065Z,4.50
2023-03-24T07:48:05.383Z,4.47
2023-03-24T07:50:33.962Z,3.83
2023-03-24T07:53:02.216Z,3.40
2023-03-24T07:55:30.218Z,5.13
2023-03-24T07:57:58.700Z,3.47
2023-03-24T08:00:26.992Z,3.90
2023-03-24T08:02:56.589Z,3.60
2023-03-24T08:05:25.359Z,4.07
2023-03-24T08:07:55.935Z,3.87
2023-03-24T08:10:27.258Z,3.50
2023-03-24T08:12:56.044Z,4.10
2023-03-24T08:15:24.938Z,3.40
2023-03-24T08:17:53.176Z,3.23
2023-03-24T08:20:24.985Z,3.73
2023-03-24T08:22:54.254Z,3.80
2023-03-24T08:25:24.467Z,3.50
2023-03-24T08:27:53.308Z,3.60
2023-03-24T08:30:23.371Z,3.43
2023-03-24T08:32:53.221Z,3.37
2023-03-24T08:35:25.118Z,3.90
2023-03-24T08:37:53.313Z,3.70
2023-03-24T08:40:24.525Z,3.47
2023-03-24T08:42:55.424Z,3.27
2023-03-24T08:45:27.637Z,3.73
2023-03-24T08:47:57.015Z,3.40
2023-03-24T08:50:30.050Z,3.80
2023-03-24T08:52:58.950Z,3.57
2023-03-24T08:55:27.147Z,4.20
2023-03-24T08:57:56.092Z,4.03
2023-03-24T09:00:24.982Z,4.47
2023-03-24T09:02:55.029Z,3.80
2023-03-24T09:05:40.947Z,4.10
2023-03-24T09:08:14.888Z,3.57
2023-03-24T09:10:46.978Z,3.47
2023-03-24T09:13:15.424Z,3.27
2023-03-24T09:15:48.017Z,3.40
2023-03-24T09:18:17.333Z,3.70
2023-03-24T09:20:47.182Z,4.20
2023-03-24T09:23:17.268Z,3.60
2023-03-24T09:25:45.635Z,4.17
2023-03-24T09:28:15.010Z,3.80
2023-03-24T09:30:44.843Z,4.10
2023-03-24T09:33:13.500Z,4.13
2023-03-24T09:35:56.009Z,3.60
2023-03-24T09:38:27.241Z,3.80
2023-03-24T09:40:58.047Z,3.90
2023-03-24T09:43:33.570Z,3.67
2023-03-24T09:46:05.848Z,3.53
2023-03-24T09:48:38.022Z,3.50
2023-03-24T09:51:11.027Z,3.60
2023-03-24T09:53:46.451Z,4.30
2023-03-24T09:56:17.177Z,4.47
2023-03-24T09:58:50.543Z,3.83
2023-03-24T10:01:19.073Z,3.73
2023-03-24T10:03:47.995Z,3.53
2023-03-24T10:06:30.263Z,3.67
2023-03-24T10:09:17.082Z,3.03
2023-03-24T10:11:51.013Z,3.37
2023-03-24T10:14:36.545Z,3.00
2023-03-24T10:17:11.341Z,3.13
2023-03-24T10:19:48.275Z,2.87
2023-03-24T10:22:23.652Z,3.07
2023-03-24T10:25:00.972Z,3.30
2023-03-24T10:27:33.996Z,2.97
2023-03-24T10:30:08.234Z,2.80
2023-03-24T10:32:38.144Z,2.43
2023-03-24T10:35:10.305Z,2.77
2023-03-24T10:37:39.637Z,3.17
2023-03-24T10:40:18.562Z,3.20
2023-03-24T10:42:49.924Z,3.33
2023-03-24T10:45:38.177Z,2.70
2023-03-24T10:48:08.033Z,3.10
2023-03-24T10:50:38.468Z,3.07
2023-03-24T10:53:10.245Z,2.93
2023-03-24T10:55:43.533Z,3.13
2023-03-24T10:58:18.858Z,2.67
2023-03-24T11:00:48.022Z,2.57
2023-03-24T11:03:18.924Z,2.70
2023-03-24T11:05:47.861Z,2.70
2023-03-24T11:08:47.022Z,2.67
2023-03-24T11:11:32.020Z,2.90
2023-03-24T11:14:02.573Z,2.97
2023-03-24T11:16:32.591Z,2.60
2023-03-24T11:19:02.784Z,2.47
2023-03-24T11:21:39.864Z,2.23
2023-03-24T11:24:13.567Z,2.70
2023-03-24T11:26:47.486Z,2.63
2023-03-24T11:29:19.979Z,2.50
2023-03-24T11:31:57.451Z,2.40
2023-03-24T11:34:34.585Z,2.50
2023-03-24T11:37:04.999Z,2.27
2023-03-24T11:40:07.661Z,2.50
2023-03-24T11:42:45.979Z,2.40
2023-03-24T11:45:28.482Z,2.13
2023-03-24T11:47:59.816Z,1.97
2023-03-24T11:50:33.408Z,2.40
2023-03-24T11:53:07.802Z,2.17
2023-03-24T11:56:01.836Z,2.13
2023-03-24T11:58:38.084Z,2.37
2023-03-24T12:01:12.196Z,2.00
2023-03-24T12:03:57.147Z,2.27
2023-03-24T12:06:41.334Z,2.40
2023-03-24T12:09:21.802Z,2.17
2023-03-24T12:12:08.461Z,2.07
2023-03-24T12:14:51.999Z,2.03
2023-03-24T12:17:24.742Z,2.03
2023-03-24T12:20:10.769Z,2.33
2023-03-24T12:22:49.181Z,2.33
2023-03-24T12:25:32.521Z,1.90
2023-03-24T12:28:14.466Z,2.23
2023-03-24T12:30:53.774Z,2.03
2023-03-24T12:33:38.519Z,1.90
2023-03-24T12:36:31.995Z,2.00
2023-03-24T12:39:11.840Z,1.80
2023-03-24T12:42:03.685Z,2.30
2023-03-24T12:45:00.177Z,1.90
2023-03-24T12:47:48.056Z,1.90
2023-03-24T12:50:28.083Z,1.87
2023-03-24T12:53:09.185Z,2.10
2023-03-24T12:55:44.715Z,1.87
2023-03-24T12:58:20.562Z,1.70
2023-03-24T13:01:01.390Z,1.40
2023-03-24T13:03:35.493Z,1.67
2023-03-24T13:06:17.300Z,1.70
2023-03-24T13:08:53.983Z,1.80
2023-03-24T13:11:33.550Z,1.90
2023-03-24T13:14:06.381Z,1.57
2023-03-24T13:16:38.174Z,1.70
2023-03-24T13:19:19.122Z,1.90
2023-03-24T13:21:47.966Z,1.70
2023-03-24T13:24:16.598Z,1.70
2023-03-24T13:26:54.529Z,1.80
2023-03-24T13:29:58.905Z,1.63
2023-03-24T13:32:37.431Z,1.73
2023-03-24T13:35:16.156Z,1.33
2023-03-24T13:37:53.242Z,1.70
2023-03-24T13:40:29.399Z,1.80
2023-03-24T13:43:00.601Z,1.60
2023-03-24T13:45:41.563Z,1.67
2023-03-24T13:48:34.227Z,1.73
2023-03-24T13:51:17.632Z,1.60
2023-03-24T13:53:51.181Z,1.50
2023-03-24T13:56:29.604Z,1.10
2023-03-24T13:59:11.349Z,0.90
2023-03-24T14:01:41.044Z,0.77
2023-03-24T14:04:29.347Z,0.70
2023-03-24T14:07:00.422Z,0.70
2023-03-24T14:09:33.010Z,0.50
2023-03-24T14:12:19.279Z,0.60
2023-03-24T14:15:17.494Z,0.80
2023-03-24T14:17:48.420Z,0.70
2023-03-24T14:20:36.457Z,0.60
2023-03-24T14:23:07.167Z,0.60
2023-03-24T14:25:37.126Z,0.87
2023-03-24T14:28:19.106Z,0.70
2023-03-24T14:31:02.290Z,1.13
2023-03-24T14:33:32.088Z,0.80
2023-03-24T14:36:06.757Z,0.83
2023-03-24T14:38:38.938Z,0.80
2023-03-24T14:41:10.209Z,0.70
2023-03-24T14:43:59.267Z,0.80
2023-03-24T14:46:50.330Z,0.93
2023-03-24T14:49:28.577Z,0.80
2023-03-24T14:52:01.858Z,0.73
2023-03-24T14:54:42.361Z,0.90
2023-03-24T14:57:17.707Z,0.70
2023-03-24T14:59:52.132Z,0.90
2023-03-24T15:02:31.243Z,0.70
2023-03-24T15:05:22.630Z,0.70
2023-03-24T15:08:04.754Z,0.80
2023-03-24T15:10:39.172Z,0.70
2023-03-24T15:13:07.499Z,0.80
2023-03-24T15:15:53.943Z,1.13
2023-03-24T15:18:23.304Z,0.87
2023-03-24T15:20:52.006Z,0.77
2023-03-24T15:23:22.682Z,0.83
2023-03-24T15:25:54.498Z,0.93
2023-03-24T15:28:27.487Z,0.73
2023-03-24T15:30:59.274Z,0.80
2023-03-24T15:33:31.130Z,0.70
2023-03-24T15:36:01.260Z,0.80
2023-03-24T15:38:31.959Z,0.60
2023-03-24T15:41:06.996Z,0.73
2023-03-24T15:43:44.794Z,0.80
2023-03-24T15:46:24.566Z,0.80
2023-03-24T15:49:01.403Z,0.70
2023-03-24T15:51:49.326Z,0.90
2023-03-24T15:54:26.142Z,0.67
2023-03-24T15:57:17.374Z,1.10
2023-03-24T15:59:50.657Z,0.87
2023-03-24T16:02:43.568Z,1.03
2023-03-24T16:05:19.743Z,0.70
2023-03-24T16:07:59.196Z,0.70
2023-03-24T16:10:37.384Z,0.80
2023-03-24T16:13:15.691Z,0.60
2023-03-24T16:15:46.107Z,0.80
2023-03-24T16:18:18.788Z,0.80
2023-03-24T16:20:47.087Z,0.90
2023-03-24T16:23:15.694Z,0.70
2023-03-24T16:25:43.686Z,0.83
2023-03-24T16:28:14.894Z,1.43
2023-03-24T16:30:46.147Z,0.80
2023-03-24T16:33:15.223Z,0.70
2023-03-24T16:35:43.381Z,0.77
2023-03-24T16:38:14.082Z,0.60
2023-03-24T16:40:46.590Z,0.80
2023-03-24T16:43:16.875Z,0.70
2023-03-24T16:45:45.032Z,0.90
2023-03-24T16:48:13.553Z,0.80
2023-03-24T16:50:43.291Z,1.00
2023-03-24T16:53:11.371Z,0.80
2023-03-24T16:55:41.649Z,0.77
2023-03-24T16:58:11.859Z,0.87
2023-03-24T17:00:43.959Z,0.80
2023-03-24T17:03:13.986Z,0.70
2023-03-24T17:05:48.524Z,1.40
2023-03-24T17:08:18.637Z,1.00
2023-03-24T17:10:49.400Z,1.20
2023-03-24T17:13:19.717Z,1.00
2023-03-24T17:15:49.268Z,0.93
2023-03-24T17:18:17.923Z,1.23
2023-03-24T17:20:47.176Z,0.87
2023-03-24T17:23:19.039Z,1.13
2023-03-24T17:25:48.046Z,1.43
2023-03-24T17:28:17.069Z,0.80
2023-03-24T17:30:45.594Z,1.13
2023-03-24T17:33:16.113Z,1.20
2023-03-24T17:35:46.735Z,1.40
2023-03-24T17:38:16.668Z,1.00
2023-03-24T17:40:46.536Z,1.27
2023-03-24T17:43:16.526Z,1.50
2023-03-24T17:45:44.651Z,1.40
2023-03-24T17:48:12.742Z,0.90
2023-03-24T17:50:42.254Z,1.50
2023-03-24T17:53:13.692Z,1.07
2023-03-24T17:55:41.812Z,1.20
2023-03-24T17:58:10.182Z,1.10
2023-03-24T18:00:38.355Z,1.33
2023-03-24T18:03:06.693Z,1.10
2023-03-24T18:05:35.327Z,1.40
2023-03-24T18:08:05.910Z,1.10
2023-03-24T18:10:36.254Z,1.03
2023-03-24T18:13:07.717Z,1.63
2023-03-24T18:15:36.291Z,0.80
2023-03-24T18:18:05.039Z,1.07
2023-03-24T18:20:33.288Z,1.00
2023-03-24T18:23:01.665Z,1.30
2023-03-24T18:25:31.518Z,1.10
2023-03-24T18:28:00.249Z,1.13
2023-03-24T18:30:28.384Z,1.30
2023-03-24T18:33:01.465Z,1.10
2023-03-24T18:35:30.809Z,1.10
2023-03-24T18:37:58.952Z,1.27
2023-03-24T18:40:49.734Z,1.93
2023-03-24T18:43:18.214Z,1.20
2023-03-24T18:45:46.296Z,1.60
2023-03-24T18:48:15.774Z,1.30
2023-03-24T18:50:43.906Z,1.30
2023-03-24T18:53:13.488Z,1.20
2023-03-24T18:55:46.575Z,1.50
2023-03-24T18:58:19.577Z,1.83
2023-03-24T19:00:50.984Z,1.37
2023-03-24T19:03:21.992Z,1.10
2023-03-24T19:05:53.178Z,1.50
2023-03-24T19:08:21.781Z,1.40
2023-03-24T19:10:50.493Z,1.67
2023-03-24T19:13:20.156Z,1.20
2023-03-24T19:15:49.810Z,1.87
2023-03-24T19:18:18.172Z,1.40
2023-03-24T19:20:46.243Z,1.47
2023-03-24T19:23:14.702Z,2.00
2023-03-24T19:25:42.916Z,1.90
2023-03-24T19:28:11.147Z,2.37
2023-03-24T19:30:42.644Z,2.23
2023-03-24T19:33:13.024Z,1.83
2023-03-24T19:35:41.563Z,2.17
2023-03-24T19:38:10.941Z,2.10
2023-03-24T19:40:41.933Z,1.93
2023-03-24T19:43:12.228Z,2.37
2023-03-24T19:45:43.014Z,2.20
2023-03-24T19:48:12.442Z,2.10
2023-03-24T19:50:41.930Z,1.97
2023-03-24T19:53:10.213Z,1.60
2023-03-24T19:55:38.628Z,2.00
2023-03-24T19:58:07.472Z,2.13
2023-03-24T20:00:36.100Z,1.97
2023-03-24T20:03:06.014Z,2.33
2023-03-24T20:05:34.770Z,1.80
2023-03-24T20:08:03.014Z,1.80
2023-03-24T20:10:31.365Z,1.93
2023-03-24T20:13:08.456Z,1.77
2023-03-24T20:15:47.214Z,2.67
2023-03-24T20:18:24.444Z,2.47
2023-03-24T20:20:52.600Z,2.70
2023-03-24T20:23:20.871Z,2.10
2023-03-24T20:25:49.605Z,1.80
2023-03-24T20:28:18.787Z,1.70
2023-03-24T20:30:46.827Z,2.17
2023-03-24T20:33:17.032Z,1.77
2023-03-24T20:35:45.832Z,2.20
2023-03-24T20:38:13.870Z,1.97
2023-03-24T20:40:42.554Z,1.77
2023-03-24T20:43:12.268Z,1.70
2023-03-24T20:45:44.650Z,2.57
2023-03-24T20:48:12.865Z,1.87
2023-03-24T20:50:43.414Z,2.10
2023-03-24T20:53:11.602Z,2.13
2023-03-24T20:55:39.863Z,1.80
2023-03-24T20:58:08.541Z,1.87
2023-03-24T21:00:38.057Z,1.73
2023-03-24T21:03:06.591Z,1.60
2023-03-24T21:05:35.557Z,1.80
2023-03-24T21:08:05.497Z,1.80
2023-03-24T21:10:36.143Z,1.90
2023-03-24T21:13:04.558Z,1.50
2023-03-24T21:15:33.096Z,1.47
2023-03-24T21:18:01.230Z,1.23
2023-03-24T21:20:30.794Z,2.03
2023-03-24T21:23:03.492Z,2.20
2023-03-24T21:25:34.783Z,1.87
2023-03-24T21:28:03.401Z,2.10
2023-03-24T21:30:32.731Z,1.40
2023-03-24T21:33:01.153Z,1.83
2023-03-24T21:35:30.424Z,1.97
2023-03-24T21:37:58.554Z,1.40
2023-03-24T21:40:27.026Z,1.93
2023-03-24T21:43:04.662Z,1.67
2023-03-24T21:45:36.047Z,1.40
2023-03-24T21:48:05.898Z,1.27
2023-03-24T21:50:38.926Z,2.20
2023-03-24T21:53:14.901Z,2.47
2023-03-24T21:55:43.548Z,1.73
2023-03-24T21:58:12.991Z,1.60
2023-03-24T22:00:41.260Z,2.37
2023-03-24T22:03:09.438Z,1.63
2023-03-24T22:05:40.068Z,2.37
2023-03-24T22:08:08.509Z,2.13
2023-03-24T22:10:37.188Z,2.00
2023-03-24T22:13:05.797Z,2.47
2023-03-24T22:15:36.826Z,2.53
2023-03-24T22:18:05.496Z,1.93
2023-03-24T22:20:33.779Z,2.10
2023-03-24T22:23:03.595Z,1.97
2023-03-24T22:25:32.334Z,2.03
2023-03-24T22:28:00.505Z,1.70
2023-03-24T22:30:28.585Z,2.57
2023-03-24T22:32:58.085Z,2.50
2023-03-24T22:35:47.640Z,2.50
2023-03-24T22:38:17.426Z,1.90
2023-03-24T22:40:45.549Z,2.30
2023-03-24T22:43:14.034Z,2.10
2023-03-24T22:45:43.112Z,2.37
2023-03-24T22:48:12.838Z,2.17
2023-03-24T22:50:42.422Z,2.73
2023-03-24T22:53:10.865Z,2.17
2023-03-24T22:55:42.102Z,2.77
2023-03-24T22:58:10.928Z,2.80
2023-03-24T23:00:38.988Z,2.57
2023-03-24T23:03:07.250Z,2.27
2023-03-24T23:05:41.084Z,2.30
2023-03-24T23:08:10.168Z,2.17
2023-03-24T23:10:40.102Z,2.73
2023-03-24T23:13:08.794Z,2.43
2023-03-24T23:15:37.922Z,2.40
2023-03-24T23:18:06.766Z,2.80
2023-03-24T23:20:37.725Z,2.70
2023-03-24T23:23:06.927Z,1.60
2023-03-24T23:25:36.688Z,2.20
2023-03-24T23:28:04.836Z,2.43
2023-03-24T23:30:33.249Z,2.43
2023-03-24T23:33:02.198Z,2.57
2023-03-24T23:35:30.821Z,2.60
2023-03-24T23:38:02.363Z,3.13
2023-03-24T23:40:30.530Z,2.93
2023-03-24T23:43:00.391Z,2.70
2023-03-24T23:45:28.635Z,3.40
2023-03-24T23:47:56.877Z,2.50
2023-03-24T23:50:26.183Z,3.57
2023-03-24T23:52:54.292Z,2.67
2023-03-24T23:55:25.932Z,2.77
2023-03-24T23:57:54.786Z,2.67
